Time;durP1;ratioP1;P1;durP2;ratioP2;P2;SDS_P1;SDS_P2;PMS_P1;PMS_P2;Temp;Humidity;BMP_temperature;BMP_pressure;BME280_temperature;BME280_humidity;BME280_pressure;Samples;Min_cycle;Max_cycle;Signal;HPM_P1;HPM_P2
2021/06/02 00:00:11;;;;;;;1.42;1.42;;;26.00;53.90;;;;;;5012071;28;20054;-42
2021/06/02 00:02:49;;;;;;;1.67;1.58;;;26.00;53.80;;;;;;5029452;28;20030;-42
2021/06/02 00:05:15;;;;;;;1.52;1.50;;;26.00;54.50;;;;;;5013710;28;20572;-42
2021/06/02 00:07:42;;;;;;;1.80;1.70;;;26.00;53.90;;;;;;5036158;28;20072;-41
2021/06/02 00:10:08;;;;;;;1.63;1.52;;;26.00;53.90;;;;;;5027663;28;20049;-40
2021/06/02 00:12:34;;;;;;;2.05;1.95;;;26.10;53.90;;;;;;5030594;28;20033;-40
2021/06/02 00:15:00;;;;;;;1.90;1.80;;;26.10;54.00;;;;;;5027926;28;20037;-43
2021/06/02 00:17:25;;;;;;;1.77;1.67;;;26.10;54.00;;;;;;5010234;28;20036;-43
2021/06/02 00:19:51;;;;;;;1.83;1.73;;;26.10;54.20;;;;;;5028000;28;20496;-43
2021/06/02 00:22:16;;;;;;;1.42;1.40;;;26.10;54.00;;;;;;5022888;28;20021;-42
2021/06/02 00:24:42;;;;;;;1.60;1.50;;;26.10;54.00;;;;;;5031563;28;20041;-41
2021/06/02 00:27:11;;;;;;;1.75;1.65;;;26.00;53.90;;;;;;5028379;28;20610;-43
2021/06/02 00:29:37;;;;;;;2.03;1.92;;;26.10;54.00;;;;;;5027730;28;20042;-43
2021/06/02 00:32:04;;;;;;;1.48;1.40;;;26.10;53.90;;;;;;5028285;28;20033;-43
2021/06/02 00:34:30;;;;;;;1.80;1.67;;;26.10;54.00;;;;;;5028517;28;20042;-43
2021/06/02 00:36:56;;;;;;;2.05;1.90;;;26.10;54.10;;;;;;5030947;28;20021;-43
2021/06/02 00:39:21;;;;;;;1.77;1.67;;;26.10;54.00;;;;;;5010202;28;20025;-43
2021/06/02 00:41:47;;;;;;;1.73;1.63;;;26.10;54.30;;;;;;5028344;28;20447;-43
2021/06/02 00:44:14;;;;;;;2.00;1.77;;;26.10;54.20;;;;;;5029967;28;20089;-43
2021/06/02 00:46:41;;;;;;;1.80;1.70;;;26.10;54.20;;;;;;5027908;28;20018;-44
2021/06/02 00:49:08;;;;;;;2.05;1.95;;;26.00;54.40;;;;;;5033569;28;20052;-42
2021/06/02 00:51:34;;;;;;;1.60;1.50;;;26.00;54.40;;;;;;5032741;28;20869;-45
2021/06/02 00:54:00;;;;;;;1.50;1.50;;;26.00;54.40;;;;;;5031883;28;20116;-43
2021/06/02 00:56:38;;;;;;;2.15;1.70;;;26.10;54.30;;;;;;5034725;28;20061;-43
2021/06/02 00:59:04;;;;;;;1.50;1.40;;;26.10;54.40;;;;;;5013853;28;20503;-43
2021/06/02 01:01:34;;;;;;;1.80;1.70;;;26.00;54.50;;;;;;5047281;28;20026;-42
2021/06/02 01:04:01;;;;;;;1.48;1.40;;;26.00;54.50;;;;;;5034589;28;20092;-42
2021/06/02 01:06:27;;;;;;;1.67;1.60;;;26.00;54.60;;;;;;5032611;28;20026;-40
2021/06/02 01:08:57;;;;;;;2.55;1.65;;;25.90;54.70;;;;;;5031237;28;20542;-41
2021/06/02 01:11:24;;;;;;;1.63;1.52;;;26.00;54.50;;;;;;5014354;28;20096;-39
2021/06/02 01:13:50;;;;;;;1.40;1.40;;;26.00;54.60;;;;;;5032819;28;20517;-43
2021/06/02 01:16:15;;;;;;;1.50;1.40;;;26.00;54.60;;;;;;5016527;28;20092;-44
2021/06/02 01:18:41;;;;;;;1.60;1.30;;;26.00;54.70;;;;;;5030967;28;20030;-43
2021/06/02 01:21:10;;;;;;;1.73;1.63;;;26.00;54.80;;;;;;5013323;28;20072;-43
2021/06/02 01:23:36;;;;;;;1.27;1.27;;;26.00;54.80;;;;;;5014155;28;20037;-44
2021/06/02 01:26:02;;;;;;;1.70;1.60;;;25.90;54.70;;;;;;5013776;28;20017;-41
2021/06/02 01:28:27;;;;;;;1.52;1.40;;;25.90;54.70;;;;;;5013984;28;20038;-42
2021/06/02 01:30:53;;;;;;;1.42;1.33;;;25.90;54.70;;;;;;5033782;28;20026;-42
2021/06/02 01:33:40;;;;;;;1.42;1.30;;;25.90;54.70;;;;;;5017508;28;20029;-43
2021/06/02 01:36:10;;;;;;;3.08;1.45;;;26.00;54.50;;;;;;5034113;28;20075;-41
2021/06/02 01:38:54;;;;;;;1.60;1.50;;;26.00;54.60;;;;;;5030740;28;20068;-39
2021/06/02 01:41:23;;;;;;;1.17;1.17;;;26.00;54.70;;;;;;5033786;28;20356;-40
2021/06/02 01:44:10;;;;;;;1.40;1.40;;;26.00;54.70;;;;;;5030821;28;20095;-41
2021/06/02 01:46:41;;;;;;;1.40;1.30;;;25.90;55.00;;;;;;5031083;28;20033;-42
2021/06/02 01:49:23;;;;;;;1.30;1.30;;;25.90;54.70;;;;;;5011469;28;20065;-42
2021/06/02 01:52:30;;;;;;;1.40;1.40;;;25.90;54.80;;;;;;5048275;28;20080;-41
2021/06/02 01:55:17;;;;;;;1.60;1.50;;;25.90;54.80;;;;;;4973099;28;20061;-42
2021/06/02 01:58:00;;;;;;;1.40;1.40;;;26.00;54.90;;;;;;4981956;28;20049;-43
2021/06/02 02:01:03;;;;;;;2.15;1.20;;;25.90;55.00;;;;;;4969730;28;20047;-42
2021/06/02 02:03:57;;;;;;;1.00;1.00;;;25.90;55.20;;;;;;4969239;28;20120;-38
2021/06/02 02:06:46;;;;;;;1.30;1.30;;;25.90;55.10;;;;;;4971198;28;20046;-40
2021/06/02 02:09:30;;;;;;;1.45;1.35;;;25.90;55.20;;;;;;4972407;28;20492;-40
2021/06/02 02:12:28;;;;;;;1.50;1.40;;;25.90;55.30;;;;;;4960545;28;20031;-40
2021/06/02 02:14:56;;;;;;;1.65;1.55;;;25.90;55.40;;;;;;4955910;28;20286;-42
2021/06/02 02:17:30;;;;;;;1.20;1.20;;;25.90;55.40;;;;;;4971115;28;20087;-42
2021/06/02 02:20:05;;;;;;;1.52;1.42;;;25.90;55.10;;;;;;4968843;28;20414;-43
2021/06/02 02:22:49;;;;;;;2.05;1.30;;;25.90;55.20;;;;;;4969784;28;20501;-42
2021/06/02 02:25:38;;;;;;;1.70;1.60;;;26.00;55.30;;;;;;4971266;28;20042;-43
2021/06/02 02:28:40;;;;;;;1.75;1.65;;;25.90;55.30;;;;;;4979111;28;20127;-42
2021/06/02 02:31:21;;;;;;;1.08;1.05;;;25.90;55.50;;;;;;5028575;28;20511;-42
2021/06/02 02:34:05;;;;;;;1.50;1.40;;;25.90;55.50;;;;;;5046711;28;20029;-42
2021/06/02 02:36:41;;;;;;;0.95;0.95;;;25.90;55.60;;;;;;5014067;28;20052;-42
2021/06/02 02:39:17;;;;;;;1.30;1.30;;;25.90;55.40;;;;;;5011902;28;20101;-43
2021/06/02 02:42:07;;;;;;;1.55;1.45;;;25.90;55.40;;;;;;5013104;28;20412;-43
2021/06/02 02:44:48;;;;;;;1.55;1.45;;;25.90;55.60;;;;;;5029658;28;20017;-41
2021/06/02 02:47:15;;;;;;;1.30;1.30;;;25.90;55.50;;;;;;5011990;28;20022;-42
2021/06/02 02:50:06;;;;;;;1.15;1.15;;;25.90;55.50;;;;;;5029022;28;20026;-42
2021/06/02 02:52:44;;;;;;;1.48;1.38;;;25.90;55.50;;;;;;5014367;28;20037;-40
2021/06/02 02:55:17;;;;;;;1.60;1.50;;;25.90;55.50;;;;;;5029303;28;20036;-42
2021/06/02 02:58:01;;;;;;;1.43;1.33;;;25.90;55.60;;;;;;5048161;28;20515;-43
2021/06/02 03:00:35;;;;;;;;;;;25.90;55.60;;;;;;5011790;28;20049;-42
2021/06/02 03:03:21;;;;;;;1.10;1.10;;;25.70;55.90;;;;;;5044287;28;19932;-42
2021/06/02 03:05:54;;;;;;;1.50;1.38;;;25.80;55.70;;;;;;5029243;28;20113;-42
2021/06/02 03:08:32;;;;;;;1.48;1.35;;;25.90;55.60;;;;;;5014350;28;20033;-42
2021/06/02 03:11:04;;;;;;;1.40;1.30;;;25.90;55.40;;;;;;5012517;28;20100;-40
2021/06/02 03:13:37;;;;;;;1.35;1.30;;;25.80;56.50;;;;;;5012387;28;20073;-43
2021/06/02 03:16:05;;;;;;;1.30;1.30;;;25.90;55.60;;;;;;5047961;28;20028;-43
2021/06/02 03:18:59;;;;;;;3.00;1.20;;;25.90;55.50;;;;;;5030013;28;20035;-43
2021/06/02 03:21:44;;;;;;;1.20;1.20;;;25.90;55.60;;;;;;5028898;28;20026;-43
2021/06/02 03:24:30;;;;;;;1.30;1.30;;;25.90;56.40;;;;;;5012498;28;20430;-42
2021/06/02 03:27:03;;;;;;;1.30;1.30;;;25.80;55.70;;;;;;5029058;28;20377;-42
2021/06/02 03:29:37;;;;;;;1.23;1.23;;;25.80;55.90;;;;;;5010979;28;20033;-42
2021/06/02 03:32:24;;;;;;;1.40;1.30;;;25.80;55.70;;;;;;5028916;28;20063;-42
2021/06/02 03:35:09;;;;;;;1.42;1.33;;;25.90;55.40;;;;;;5011830;28;20115;-44
2021/06/02 03:38:18;;;;;;;1.35;1.35;;;25.90;55.40;;;;;;5030201;28;20041;-40
2021/06/02 03:40:50;;;;;;;1.00;1.00;;;25.90;55.30;;;;;;5022772;28;20091;-43
2021/06/02 03:43:30;;;;;;;1.33;1.33;;;25.80;55.50;;;;;;5036611;28;20029;-43
2021/06/02 03:46:20;;;;;;;1.20;1.20;;;25.70;55.80;;;;;;5035846;28;20123;-43
2021/06/02 03:49:06;;;;;;;1.08;1.08;;;25.60;55.80;;;;;;5030010;28;20049;-41
2021/06/02 03:51:57;;;;;;;1.33;1.30;;;25.70;56.00;;;;;;5016983;28;20025;-42
2021/06/02 03:54:52;;;;;;;1.30;1.30;;;25.80;56.00;;;;;;5029338;28;20034;-43
2021/06/02 03:57:23;;;;;;;;;;;25.80;55.90;;;;;;5012591;28;20515;-44
2021/06/02 04:00:00;;;;;;;1.25;1.25;;;25.70;56.00;;;;;;5027503;28;19913;-44
2021/06/02 04:02:56;;;;;;;1.45;1.35;;;25.80;55.90;;;;;;5028431;28;20025;-44
2021/06/02 04:05:43;;;;;;;1.25;1.17;;;25.80;55.80;;;;;;5009705;28;20017;-43
2021/06/02 04:08:42;;;;;;;1.15;1.15;;;25.80;55.80;;;;;;5037312;28;20522;-41
2021/06/02 04:11:33;;;;;;;1.10;1.10;;;25.90;55.80;;;;;;5026957;28;20029;-41
2021/06/02 04:14:00;;;;;;;1.50;1.40;;;25.80;56.40;;;;;;5012781;28;20060;-43
2021/06/02 04:16:36;;;;;;;1.40;1.30;;;25.90;55.80;;;;;;5011829;28;20033;-42
2021/06/02 04:19:03;;;;;;;1.27;1.27;;;25.90;55.70;;;;;;5031255;28;20041;-43
2021/06/02 04:21:29;;;;;;;1.10;1.10;;;25.90;55.80;;;;;;5031719;28;20441;-42
2021/06/02 04:23:55;;;;;;;1.38;1.38;;;25.90;55.60;;;;;;5014756;28;20104;-44
2021/06/02 04:26:21;;;;;;;1.38;1.38;;;25.90;55.70;;;;;;5012195;28;20017;-44
2021/06/02 04:28:47;;;;;;;1.15;1.15;;;25.80;55.80;;;;;;5009194;28;20065;-45
2021/06/02 04:31:14;;;;;;;1.50;1.50;;;25.80;55.70;;;;;;5030997;28;20022;-43
2021/06/02 04:33:40;;;;;;;1.80;1.70;;;25.70;55.70;;;;;;5029023;28;20661;-44
2021/06/02 04:36:08;;;;;;;2.00;1.38;;;25.80;55.90;;;;;;5028232;28;20024;-42
2021/06/02 04:38:33;;;;;;;1.33;1.30;;;25.80;55.90;;;;;;5027680;28;20783;-45
2021/06/02 04:41:03;;;;;;;1.20;1.13;;;25.70;55.80;;;;;;5038838;28;20075;-43
2021/06/02 04:43:39;;;;;;;1.20;1.20;;;25.80;55.90;;;;;;5028264;28;20045;-44
2021/06/02 04:46:07;;;;;;;1.20;1.10;;;25.80;55.80;;;;;;5039342;28;20030;-43
2021/06/02 04:48:33;;;;;;;1.10;1.10;;;25.80;55.70;;;;;;5025690;28;20045;-42
2021/06/02 04:51:19;;;;;;;1.33;1.30;;;25.80;55.90;;;;;;5008774;28;20030;-42
2021/06/02 04:54:12;;;;;;;1.17;1.17;;;25.70;55.90;;;;;;5027381;28;20097;-44
2021/06/02 04:57:01;;;;;;;1.17;1.10;;;25.80;55.90;;;;;;5027392;28;20052;-43
2021/06/02 04:59:45;;;;;;;1.10;1.10;;;25.80;56.30;;;;;;5009947;28;20096;-44
2021/06/02 05:02:42;;;;;;;1.40;1.30;;;25.80;55.80;;;;;;5033847;28;20496;-46
2021/06/02 05:05:42;;;;;;;1.30;1.30;;;25.80;55.70;;;;;;5025276;28;20025;-43
2021/06/02 05:08:13;;;;;;;1.08;1.08;;;25.80;55.90;;;;;;5025856;28;20045;-42
2021/06/02 05:10:39;;;;;;;1.25;1.20;;;25.70;56.10;;;;;;5026860;28;20037;-44
2021/06/02 05:13:13;;;;;;;0.98;0.98;;;25.60;56.00;;;;;;5029549;28;20029;-42
2021/06/02 05:16:00;;;;;;;1.10;1.10;;;25.60;56.00;;;;;;5029368;28;20021;-42
2021/06/02 05:19:15;;;;;;;1.17;1.17;;;25.70;55.80;;;;;;5025550;28;20072;-41
2021/06/02 05:22:06;;;;;;;1.45;1.33;;;25.70;55.60;;;;;;5032633;28;20056;-41
2021/06/02 05:24:40;;;;;;;1.60;1.50;;;25.60;54.60;;;;;;5024312;28;20055;-41
2021/06/02 05:27:42;;;;;;;1.63;1.53;;;25.50;54.80;;;;;;4680638;28;10001638;-41
2021/06/02 05:30:24;;;;;;;2.90;2.00;;;25.50;56.00;;;;;;5022613;28;20044;-44
2021/06/02 05:33:08;;;;;;;2.38;2.17;;;25.30;56.60;;;;;;5004720;28;20034;-42
2021/06/02 05:35:56;;;;;;;4.63;2.97;;;25.10;58.00;;;;;;5027168;28;20040;-43
2021/06/02 05:38:50;;;;;;;5.72;4.20;;;25.00;58.70;;;;;;4927858;29;20050;-42
2021/06/02 05:41:33;;;;;;;6.35;4.22;;;24.80;60.10;;;;;;4929094;29;20164;-43
2021/06/02 05:44:29;;;;;;;6.22;4.10;;;24.60;60.70;;;;;;4929558;29;20040;-41
2021/06/02 05:47:32;;;;;;;5.25;4.38;;;24.50;61.30;;;;;;4927527;29;22306;-43
2021/06/02 05:50:18;;;;;;;9.13;4.05;;;24.40;62.20;;;;;;4932492;29;20055;-43
2021/06/02 05:53:15;;;;;;;5.70;3.78;;;24.40;62.00;;;;;;4932494;29;20035;-43
2021/06/02 05:55:51;;;;;;;6.63;3.70;;;24.50;61.50;;;;;;4933436;29;20075;-42
2021/06/02 05:58:41;;;;;;;5.32;4.10;;;24.50;61.70;;;;;;4930514;29;20024;-40
2021/06/02 06:01:44;;;;;;;5.70;3.70;;;24.40;62.40;;;;;;4929718;29;20527;-43
2021/06/02 06:04:28;;;;;;;4.72;3.10;;;24.60;62.30;;;;;;4930792;29;20070;-43
2021/06/02 06:07:02;;;;;;;4.32;3.35;;;24.40;62.90;;;;;;4934643;29;20527;-43
2021/06/02 06:09:43;;;;;;;4.85;3.85;;;24.40;63.20;;;;;;4929872;29;20142;-39
2021/06/02 06:12:42;;;;;;;4.05;3.75;;;24.30;63.40;;;;;;4932640;29;20051;-42
2021/06/02 06:15:08;;;;;;;3.83;3.58;;;24.10;63.90;;;;;;4957405;28;20049;-43
2021/06/02 06:18:14;;;;;;;4.88;4.22;;;24.30;63.70;;;;;;5025396;28;20127;-43
2021/06/02 06:21:01;;;;;;;3.58;3.38;;;24.30;63.90;;;;;;4950734;28;20048;-43
2021/06/02 06:24:04;;;;;;;4.18;3.65;;;24.40;63.40;;;;;;4951487;29;20058;-43
2021/06/02 06:27:13;;;;;;;3.83;3.53;;;24.20;64.20;;;;;;4951685;29;20600;-43
2021/06/02 06:30:03;;;;;;;3.50;3.22;;;24.20;64.40;;;;;;4950631;29;20055;-44
2021/06/02 06:32:29;;;;;;;7.78;4.00;;;24.00;65.00;;;;;;4951594;28;20040;-43
2021/06/02 06:34:55;;;;;;;4.60;3.40;;;24.10;65.50;;;;;;4951243;29;20031;-44
2021/06/02 06:37:20;;;;;;;4.97;3.85;;;24.00;65.00;;;;;;4950882;29;20038;-44
2021/06/02 06:39:53;;;;;;;4.30;3.90;;;24.10;65.10;;;;;;4951160;29;20031;-43
2021/06/02 06:42:21;;;;;;;4.82;3.92;;;24.00;65.10;;;;;;4935690;29;20042;-41
2021/06/02 06:44:48;;;;;;;4.35;3.95;;;24.00;65.10;;;;;;4942902;28;20057;-44
2021/06/02 06:47:14;;;;;;;4.78;3.78;;;24.20;64.70;;;;;;4950224;28;20502;-42
2021/06/02 06:49:41;;;;;;;4.45;3.95;;;24.20;64.90;;;;;;4931616;28;20058;-43
2021/06/02 06:52:07;;;;;;;4.70;4.22;;;24.30;64.70;;;;;;4936321;29;20029;-45
2021/06/02 06:54:32;;;;;;;5.40;4.93;;;24.20;65.30;;;;;;4951182;29;20039;-45
2021/06/02 06:56:58;;;;;;;4.47;4.10;;;24.10;65.30;;;;;;4998894;28;20092;-44
2021/06/02 06:59:24;;;;;;;5.88;4.13;;;24.00;66.30;;;;;;5012252;28;20041;-44
2021/06/02 07:01:49;;;;;;;6.63;4.15;;;23.90;66.60;;;;;;5011640;28;20053;-44
2021/06/02 07:04:15;;;;;;;7.05;4.40;;;23.90;67.00;;;;;;5038578;28;20035;-44
2021/06/02 07:06:42;;;;;;;6.88;4.93;;;23.90;67.20;;;;;;5028330;28;20079;-44
2021/06/02 07:09:09;;;;;;;6.00;5.28;;;23.90;66.90;;;;;;5010153;28;20065;-44
2021/06/02 07:11:40;;;;;;;7.65;5.05;;;24.00;66.50;;;;;;5028033;28;20495;-44
2021/06/02 07:14:08;;;;;;;6.07;5.53;;;24.10;66.30;;;;;;5028348;28;20045;-44
2021/06/02 07:16:37;;;;;;;5.38;4.88;;;23.90;67.00;;;;;;4995113;28;20108;-44
2021/06/02 07:19:03;;;;;;;5.00;4.57;;;23.80;67.20;;;;;;5027551;28;20020;-44
2021/06/02 07:21:29;;;;;;;4.88;4.47;;;23.80;66.90;;;;;;5010767;28;20041;-43
2021/06/02 07:23:54;;;;;;;5.03;4.63;;;24.00;66.50;;;;;;5010225;28;20053;-44
2021/06/02 07:26:20;;;;;;;6.53;4.85;;;24.00;66.60;;;;;;5010255;28;20065;-44
2021/06/02 07:28:46;;;;;;;4.63;4.32;;;24.10;66.20;;;;;;5027754;28;20618;-44
2021/06/02 07:31:11;;;;;;;6.03;4.40;;;24.00;66.20;;;;;;5029078;28;20476;-44
2021/06/02 07:33:37;;;;;;;5.63;4.55;;;24.00;66.30;;;;;;5027497;28;20034;-44
2021/06/02 07:36:04;;;;;;;8.23;5.22;;;23.90;66.80;;;;;;5027298;28;20056;-44
2021/06/02 07:38:29;;;;;;;4.53;4.13;;;23.90;66.90;;;;;;5029199;28;20111;-44
2021/06/02 07:40:56;;;;;;;3.85;3.47;;;23.90;66.50;;;;;;5026897;28;20105;-44
2021/06/02 07:43:21;;;;;;;4.18;3.63;;;24.00;65.90;;;;;;5029306;28;20083;-43
2021/06/02 07:45:47;;;;;;;3.97;3.53;;;24.20;65.30;;;;;;5028283;28;20029;-43
2021/06/02 07:48:12;;;;;;;3.83;3.53;;;24.30;64.70;;;;;;5028784;28;20037;-43
2021/06/02 07:50:38;;;;;;;3.70;3.40;;;24.50;63.90;;;;;;5026617;28;20120;-44
2021/06/02 07:53:04;;;;;;;4.13;3.75;;;24.60;63.40;;;;;;5027232;28;20558;-44
2021/06/02 07:55:30;;;;;;;3.78;3.47;;;24.60;63.40;;;;;;5026606;28;20443;-44
2021/06/02 07:57:55;;;;;;;4.55;4.07;;;24.60;63.10;;;;;;5027552;28;20510;-43
2021/06/02 08:00:21;;;;;;;4.07;3.70;;;24.70;62.80;;;;;;5027407;28;20057;-44
2021/06/02 08:02:47;;;;;;;4.18;3.58;;;24.80;62.60;;;;;;5027264;28;20021;-44
2021/06/02 08:05:14;;;;;;;5.43;3.70;;;24.80;62.10;;;;;;5026901;28;20092;-40
2021/06/02 08:07:41;;;;;;;4.00;3.70;;;24.90;62.40;;;;;;5026901;28;20037;-41
2021/06/02 08:10:07;;;;;;;3.50;3.20;;;24.90;62.80;;;;;;5031496;28;20033;-41
2021/06/02 08:12:33;;;;;;;4.00;3.70;;;24.80;62.30;;;;;;5028445;28;20033;-43
2021/06/02 08:14:59;;;;;;;4.47;4.18;;;24.80;62.20;;;;;;5027522;28;20507;-43
2021/06/02 08:17:24;;;;;;;4.45;3.90;;;24.90;62.70;;;;;;5027480;28;20013;-43
2021/06/02 08:19:50;;;;;;;3.95;3.65;;;24.90;62.50;;;;;;5009762;28;20607;-44
2021/06/02 08:22:15;;;;;;;4.30;4.00;;;24.90;62.40;;;;;;5029536;28;20026;-41
2021/06/02 08:24:41;;;;;;;6.05;4.50;;;24.90;62.10;;;;;;5028904;28;20075;-42
2021/06/02 08:27:10;;;;;;;4.53;4.05;;;24.90;62.90;;;;;;5027725;28;20036;-44
2021/06/02 08:29:35;;;;;;;4.25;3.95;;;25.00;62.10;;;;;;5027211;28;20516;-42
2021/06/02 08:32:01;;;;;;;4.15;3.80;;;25.00;61.80;;;;;;5027574;28;20017;-42
2021/06/02 08:34:27;;;;;;;4.25;3.95;;;25.00;61.60;;;;;;5028425;28;20052;-45
2021/06/02 08:36:52;;;;;;;4.10;3.70;;;24.90;62.00;;;;;;5029027;28;20021;-42
2021/06/02 08:39:18;;;;;;;8.73;4.70;;;25.00;61.90;;;;;;5010453;28;20540;-43
2021/06/02 08:41:44;;;;;;;5.43;4.43;;;25.00;61.70;;;;;;5028624;28;20030;-43
2021/06/02 08:44:09;;;;;;;4.85;4.40;;;25.10;61.30;;;;;;5011371;28;20026;-41
2021/06/02 08:46:35;;;;;;;6.05;4.80;;;25.20;61.30;;;;;;5028719;28;20056;-42
2021/06/02 08:49:02;;;;;;;4.55;4.15;;;25.20;61.40;;;;;;5030006;28;20091;-42
2021/06/02 08:51:29;;;;;;;5.03;4.28;;;25.30;61.10;;;;;;5027794;28;20052;-45
2021/06/02 08:53:54;;;;;;;4.32;3.92;;;25.20;61.30;;;;;;5015648;28;20037;-42
2021/06/02 08:56:20;;;;;;;7.07;4.68;;;25.20;61.20;;;;;;5023702;28;20534;-44
2021/06/02 08:58:45;;;;;;;4.70;4.30;;;25.10;61.20;;;;;;5044518;28;20032;-43
2021/06/02 09:01:11;;;;;;;4.47;4.07;;;25.20;60.90;;;;;;5034966;28;20037;-43
2021/06/02 09:03:37;;;;;;;4.30;4.00;;;25.20;61.00;;;;;;5042876;28;20107;-44
2021/06/02 09:06:07;;;;;;;5.75;4.70;;;25.20;60.70;;;;;;5026808;28;20046;-43
2021/06/02 09:08:33;;;;;;;6.55;4.60;;;25.20;60.90;;;;;;5033356;28;20068;-43
2021/06/02 09:11:10;;;;;;;5.00;4.53;;;25.20;60.70;;;;;;5043209;28;20041;-43
2021/06/02 09:13:36;;;;;;;5.45;4.65;;;25.20;60.30;;;;;;5029490;28;20123;-43
2021/06/02 09:16:01;;;;;;;5.22;4.72;;;25.20;60.30;;;;;;5028320;28;20515;-43
2021/06/02 09:18:27;;;;;;;4.97;4.57;;;25.20;60.50;;;;;;5034418;28;20053;-43
2021/06/02 09:20:55;;;;;;;6.18;4.53;;;25.20;60.20;;;;;;5036825;28;20090;-43
2021/06/02 09:23:40;;;;;;;5.15;4.70;;;25.00;60.70;;;;;;5030019;28;20052;-43
2021/06/02 09:26:25;;;;;;;4.65;4.25;;;25.10;60.30;;;;;;5034685;28;20534;-42
2021/06/02 09:29:11;;;;;;;5.15;4.75;;;25.20;59.90;;;;;;5038756;28;20045;-37
2021/06/02 09:31:46;;;;;;;4.40;4.10;;;25.30;59.90;;;;;;5031019;28;20042;-40
2021/06/02 09:34:16;;;;;;;5.10;4.68;;;25.30;59.70;;;;;;5040414;28;20075;-35
2021/06/02 09:36:43;;;;;;;6.13;4.22;;;25.40;59.50;;;;;;5041178;28;20041;-38
2021/06/02 09:39:20;;;;;;;4.45;4.03;;;25.40;59.30;;;;;;5041912;28;20056;-36
2021/06/02 09:41:48;;;;;;;4.38;3.95;;;25.50;59.30;;;;;;5042030;28;20575;-36
2021/06/02 09:44:26;;;;;;;5.03;4.53;;;25.50;59.00;;;;;;5031943;28;20045;-36
2021/06/02 09:46:58;;;;;;;4.72;4.40;;;25.60;58.90;;;;;;5030384;28;20403;-39
2021/06/02 09:49:24;;;;;;;4.75;4.45;;;25.60;58.80;;;;;;5048441;28;20057;-40
2021/06/02 09:51:50;;;;;;;5.38;4.95;;;25.40;59.10;;;;;;5038917;28;20049;-37
2021/06/02 09:54:15;;;;;;;5.47;4.95;;;25.40;59.80;;;;;;5050108;28;20059;-40
2021/06/02 09:56:42;;;;;;;5.57;5.18;;;25.40;59.50;;;;;;5048777;28;20052;-36
2021/06/02 09:59:11;;;;;;;6.90;6.28;;;25.20;59.90;;;;;;5048237;28;20037;-40
2021/06/02 10:01:59;;;;;;;6.40;5.90;;;25.10;61.10;;;;;;5035475;28;20049;-47
2021/06/02 10:04:36;;;;;;;6.63;6.07;;;25.10;60.20;;;;;;5049333;28;20123;-41
2021/06/02 10:07:03;;;;;;;6.72;6.10;;;25.00;60.50;;;;;;5048189;28;20384;-38
2021/06/02 10:09:33;;;;;;;6.22;5.72;;;24.80;61.30;;;;;;5039135;28;20060;-41
2021/06/02 10:12:03;;;;;;;6.68;6.03;;;24.60;62.00;;;;;;5040016;28;20140;-38
2021/06/02 10:14:29;;;;;;;5.97;5.55;;;24.50;62.60;;;;;;5039200;28;20049;-36
2021/06/02 10:16:56;;;;;;;6.18;5.57;;;24.40;62.80;;;;;;5016499;28;20132;-37
2021/06/02 10:19:41;;;;;;;5.70;5.18;;;24.50;62.70;;;;;;5045360;28;20037;-37
2021/06/02 10:22:22;;;;;;;5.50;5.10;;;24.50;62.70;;;;;;5033196;28;20064;-37
2021/06/02 10:24:48;;;;;;;5.85;5.40;;;24.60;62.90;;;;;;5015775;28;20045;-39
2021/06/02 10:27:14;;;;;;;6.47;5.88;;;24.60;62.90;;;;;;5027441;28;20082;-37
2021/06/02 10:29:39;;;;;;;6.22;5.72;;;24.70;62.70;;;;;;4671624;28;10000423;-40
2021/06/02 10:32:06;;;;;;;7.07;6.20;;;24.60;63.00;;;;;;5007757;28;20389;-41
2021/06/02 10:34:31;;;;;;;6.90;6.25;;;24.70;62.60;;;;;;5025557;28;20046;-39
2021/06/02 10:36:57;;;;;;;7.30;5.32;;;24.70;62.90;;;;;;5022763;28;20042;-39
2021/06/02 10:39:23;;;;;;;6.15;5.75;;;24.70;63.00;;;;;;5028061;28;20084;-39
2021/06/02 10:41:54;;;;;;;6.18;5.57;;;24.60;63.30;;;;;;5009448;28;20131;-40
2021/06/02 10:44:27;;;;;;;5.65;5.15;;;24.50;63.50;;;;;;5027345;28;20491;-38
2021/06/02 10:46:52;;;;;;;6.00;5.60;;;24.50;63.20;;;;;;5040677;28;20044;-39
2021/06/02 10:49:28;;;;;;;6.50;6.00;;;24.50;63.30;;;;;;5045659;28;20588;-39
2021/06/02 10:51:56;;;;;;;7.38;6.68;;;24.50;63.60;;;;;;5047662;28;20049;-36
2021/06/02 10:54:35;;;;;;;6.05;5.65;;;24.40;63.70;;;;;;5048098;28;20041;-40
2021/06/02 10:57:00;;;;;;;6.43;5.93;;;24.50;64.20;;;;;;5045567;28;20033;-39
2021/06/02 10:59:36;;;;;;;6.70;6.10;;;24.50;63.20;;;;;;5048788;28;20060;-40
2021/06/02 11:02:11;;;;;;;6.20;5.80;;;24.50;63.10;;;;;;5042811;28;20025;-37
2021/06/02 11:04:55;;;;;;;6.38;5.93;;;24.50;63.00;;;;;;5044541;28;20044;-36
2021/06/02 11:07:21;;;;;;;6.70;6.20;;;24.60;62.50;;;;;;5044569;28;20049;-33
2021/06/02 11:09:53;;;;;;;6.28;5.88;;;24.60;62.70;;;;;;5045615;28;20045;-38
2021/06/02 11:12:19;;;;;;;6.75;6.25;;;24.60;62.80;;;;;;5044400;28;20049;-39
2021/06/02 11:14:45;;;;;;;6.00;5.60;;;24.60;62.30;;;;;;5046215;28;20025;-37
2021/06/02 11:17:11;;;;;;;6.20;5.40;;;24.60;62.30;;;;;;5046082;28;20029;-37
2021/06/02 11:19:37;;;;;;;6.43;6.03;;;24.70;62.10;;;;;;5046649;28;20047;-36
2021/06/02 11:22:05;;;;;;;6.25;5.75;;;24.70;62.10;;;;;;5047590;28;20518;-35
2021/06/02 11:24:31;;;;;;;5.68;5.20;;;24.80;61.70;;;;;;5046981;28;20025;-36
2021/06/02 11:29:37;;;;;;;5.72;5.38;;;24.70;61.90;;;;;;5046222;28;20426;-40
2021/06/02 11:32:19;;;;;;;6.05;5.75;;;24.70;62.00;;;;;;5028687;28;20813;-41
2021/06/02 11:34:45;;;;;;;6.70;6.30;;;24.70;61.90;;;;;;5045642;28;20100;-43
2021/06/02 11:37:16;;;;;;;7.03;5.63;;;24.70;61.80;;;;;;5028331;28;20052;-37
2021/06/02 11:39:42;;;;;;;6.65;6.15;;;24.70;61.90;;;;;;5046858;28;20033;-32
2021/06/02 11:42:30;;;;;;;6.03;5.68;;;24.70;61.90;;;;;;5047807;28;20074;-37
2021/06/02 11:45:09;;;;;;;5.97;5.68;;;24.70;61.50;;;;;;5049450;28;20479;-41
2021/06/02 11:47:35;;;;;;;5.85;5.45;;;24.70;61.10;;;;;;5049431;28;20025;-39
2021/06/02 11:50:11;;;;;;;6.65;6.20;;;25.00;61.00;;;;;;5049790;28;20033;-39
2021/06/02 11:52:37;;;;;;;6.18;5.78;;;25.40;59.20;;;;;;5047428;28;20400;-33
2021/06/02 11:55:10;;;;;;;6.53;6.03;;;25.30;59.10;;;;;;5050966;28;20406;-38
2021/06/02 11:57:40;;;;;;;6.53;6.13;;;25.50;58.90;;;;;;5016069;28;20036;-35
2021/06/02 12:00:07;;;;;;;6.97;6.43;;;25.50;58.10;;;;;;5064443;28;20144;-35
2021/06/02 12:02:33;;;;;;;6.68;6.18;;;25.60;58.10;;;;;;5049327;28;20040;-36
2021/06/02 12:05:14;;;;;;;7.07;6.57;;;25.40;58.10;;;;;;5049042;28;20029;-40
2021/06/02 12:07:54;;;;;;;7.00;6.40;;;25.50;58.50;;;;;;5048588;28;20059;-38
2021/06/02 12:10:20;;;;;;;7.82;6.88;;;25.40;58.00;;;;;;5049137;28;20120;-37
2021/06/02 12:12:46;;;;;;;7.13;6.50;;;25.50;57.50;;;;;;5050740;28;20029;-35
2021/06/02 12:15:13;;;;;;;7.20;6.50;;;25.50;57.40;;;;;;5030157;28;20043;-40
2021/06/02 12:17:39;;;;;;;6.38;5.90;;;25.40;57.90;;;;;;5047652;28;20051;-37
2021/06/02 12:20:07;;;;;;;7.05;6.45;;;25.40;57.50;;;;;;5048752;28;20017;-39
2021/06/02 12:22:32;;;;;;;7.03;6.30;;;25.30;57.30;;;;;;5045087;28;20044;-46
2021/06/02 12:25:08;;;;;;;6.55;6.05;;;25.00;58.00;;;;;;5049282;28;20021;-37
2021/06/02 12:27:45;;;;;;;7.85;6.25;;;25.00;58.30;;;;;;5048046;28;20162;-42
2021/06/02 12:30:23;;;;;;;7.18;6.50;;;25.10;57.80;;;;;;5048049;28;20148;-40
2021/06/02 12:32:49;;;;;;;8.45;7.60;;;25.00;57.80;;;;;;5048565;28;20036;-32
2021/06/02 12:35:46;;;;;;;7.50;5.95;;;24.90;58.20;;;;;;5047866;28;21264;-36
2021/06/02 12:38:21;;;;;;;9.63;6.30;;;25.00;57.80;;;;;;5044648;28;20032;-38
2021/06/02 12:40:50;;;;;;;6.30;5.75;;;25.10;57.40;;;;;;5049346;28;20567;-38
2021/06/02 12:43:20;;;;;;;7.28;6.60;;;25.10;57.30;;;;;;5050153;28;20065;-36
2021/06/02 12:45:47;;;;;;;6.03;5.47;;;25.10;57.10;;;;;;5052082;28;20120;-36
2021/06/02 12:48:15;;;;;;;6.57;5.97;;;25.20;57.10;;;;;;5051518;28;20099;-40
2021/06/02 12:50:46;;;;;;;6.38;5.82;;;25.10;57.30;;;;;;5051392;28;20055;-40
2021/06/02 12:53:12;;;;;;;6.35;5.75;;;24.90;57.40;;;;;;5051426;28;20111;-40
2021/06/02 12:55:42;;;;;;;6.00;5.45;;;25.00;57.50;;;;;;5052017;28;20028;-38
2021/06/02 12:58:13;;;;;;;7.38;6.38;;;25.10;57.00;;;;;;5051297;28;20458;-36
2021/06/02 13:00:40;;;;;;;5.82;5.43;;;25.00;57.00;;;;;;5038016;28;20048;-40
2021/06/02 13:03:06;;;;;;;8.13;6.28;;;25.00;57.00;;;;;;5051337;28;20048;-38
2021/06/02 13:05:31;;;;;;;6.25;5.78;;;25.20;56.40;;;;;;5035273;28;20075;-39
2021/06/02 13:08:09;;;;;;;6.57;5.97;;;25.20;56.50;;;;;;5033853;28;20026;-34
2021/06/02 13:10:36;;;;;;;6.57;6.00;;;24.80;57.20;;;;;;5050916;28;20037;-36
2021/06/02 13:13:03;;;;;;;6.60;5.95;;;24.60;57.70;;;;;;5051840;28;20032;-46
2021/06/02 13:15:31;;;;;;;6.43;5.47;;;24.60;57.80;;;;;;5052228;28;20025;-35
2021/06/02 13:17:57;;;;;;;5.93;5.50;;;24.80;57.20;;;;;;5032041;28;20036;-40
2021/06/02 13:20:29;;;;;;;5.97;5.57;;;24.90;56.80;;;;;;5050610;28;20070;-37
2021/06/02 13:23:18;;;;;;;6.05;5.57;;;24.90;57.10;;;;;;5032620;28;20388;-37